Vision — WDF6306 — position and weather

sailwx.info

Track history (hours):
 
Tides and Currents Weather Stations Pressure Air Temp Water Temp Dewpoint Dewpoint Depression Visibility Wind Speed Wind Dir Waves Ship Positions

Vision

More information available from US FCC via Universal Licensing System and Coast Guard Vessel Documentation Center.

Last reported at 2014-Aug-20 02:32 UTC. Time now 2014-Aug-21 12:08 UTC.
Position N 46°14' W 123°26'.

Length 199 m; draft 5 m.

Type: Tow > 200 m length. MMSI: 366904000.

Date/timePositionNaut miles runAvg speedWind from/ knotsBaromVisibWave heightAir tempDewpointWater temp
2014-Aug-20 02:32N 46°14' W 123°26'1110.8
2014-Aug-20 01:33N 46°15' W 123°41'1110.9
2014-Aug-20 00:34N 46°12' W 123°56'9 8.9
2014-Aug-19 23:33N 46°11' W 124°09'9 9.2
2014-Aug-19 22:34N 46°04' W 124°17'146 9.0
2014-Aug-19 06:27N 43°48' W 125°30'8 8.7
2014-Aug-19 05:34N 43°41' W 125°34'9 8.9
2014-Aug-19 04:33N 43°32' W 125°39'191 9.0
2014-Aug-18 07:23N 40°21' W 125°39'59 8.2
2014-Aug-18 00:13N 39°26' W 125°11'54 9.3
2014-Aug-17 18:24N 38°36' W 124°46'8 9.6
2014-Aug-17 17:33N 38°28' W 124°42'9 9.3
2014-Aug-17 16:33N 38°20' W 124°38'9 9.1
2014-Aug-17 15:33N 38°13' W 124°30'9 9.4
2014-Aug-17 14:33N 38°07' W 124°20'1010.0
2014-Aug-17 13:33N 38°01' W 124°11'1211.9
2014-Aug-17 12:33N 37°53' W 123°59'1212.3
2014-Aug-17 11:33N 37°45' W 123°47'1111.2
2014-Aug-17 10:33N 37°38' W 123°37'10 9.5
2014-Aug-17 09:33N 37°34' W 123°26'1212.4
2014-Aug-17 08:34N 37°34' W 123°10'1211.8
2014-Aug-17 07:33N 37°38' W 122°56'1212.2
2014-Aug-17 06:33N 37°44' W 122°42'1313.2
2014-Aug-17 05:33N 37°50' W 122°28'6 6.3
2014-Aug-17 04:32N 37°46' W 122°21'0 0.0
2014-Aug-17 03:32N 37°46' W 122°21'0 0.1
2014-Aug-17 02:32N 37°46' W 122°21'0 0.1
2014-Aug-17 01:32N 37°46' W 122°21'0 0.2
2014-Aug-17 00:32N 37°46' W 122°21'0 0.1
2014-Aug-16 23:32N 37°46' W 122°21'0 0.1
2014-Aug-16 22:33N 37°46' W 122°21'0 0.1
2014-Aug-16 21:32N 37°46' W 122°21'0 0.0
2014-Aug-16 20:32N 37°46' W 122°21'0 0.1
2014-Aug-16 19:29N 37°46' W 122°21'0 0.2
2014-Aug-16 18:32N 37°46' W 122°21'0 0.0
2014-Aug-16 17:32N 37°46' W 122°21'0 0.0
2014-Aug-16 16:32N 37°46' W 122°21'7 7.5
2014-Aug-16 15:33N 37°53' W 122°25'1111.1
2014-Aug-16 14:33N 38°03' W 122°20'9 9.5
2014-Aug-16 13:34N 38°02' W 122°08'0 0.1
2014-Aug-16 11:30N 38°02' W 122°08'0 0.0
2014-Aug-16 10:30N 38°02' W 122°08'0 0.0
2014-Aug-16 09:30N 38°02' W 122°08'0 0.0
2014-Aug-16 08:30N 38°02' W 122°08'0 0.0
2014-Aug-16 07:30N 38°02' W 122°08'0 0.0
2014-Aug-16 06:24N 38°02' W 122°08'0 0.0
2014-Aug-16 05:30N 38°02' W 122°08'0 0.0
2014-Aug-16 04:30N 38°02' W 122°08'0 0.0
2014-Aug-16 02:24N 38°02' W 122°08'0 0.0
2014-Aug-15 16:06N 38°02' W 122°08'0 0.0
2014-Aug-15 15:30N 38°02' W 122°08'0 0.4
2014-Aug-15 14:33N 38°02' W 122°08'7 7.3
2014-Aug-15 13:33N 38°03' W 122°17'8 8.0
2014-Aug-15 12:33N 37°59' W 122°26'8 7.7
2014-Aug-15 11:33N 37°51' W 122°25'1010.3
2014-Aug-15 10:33N 37°46' W 122°36'9 8.7
2014-Aug-15 09:33N 37°42' W 122°45'7 7.2
2014-Aug-15 08:33N 37°38' W 122°53'8 8.0
2014-Aug-15 07:33N 37°33' W 123°01'8 7.7
2014-Aug-15 06:33N 37°32' W 123°11'8 8.1
2014-Aug-15 05:33N 37°32' W 123°21'8 8.1
2014-Aug-15 04:33N 37°33' W 123°31'8 7.7
2014-Aug-15 03:33N 37°38' W 123°39'8 7.9
2014-Aug-15 02:33N 37°43' W 123°47'9 8.6
2014-Aug-15 01:33N 37°49' W 123°54'11 9.2
2014-Aug-15 00:21N 37°57' W 124°04'30 7.9
2014-Aug-14 20:30N 38°17' W 124°33'54512.3
2014-Aug-13 00:21N 47°19' W 125°43'4612.2
2014-Aug-12 20:33N 48°04' W 125°23'1211.9
2014-Aug-12 19:32N 48°14' W 125°15'1212.6
2014-Aug-12 18:33N 48°25' W 125°06'1111.5
2014-Aug-12 17:33N 48°31' W 124°51'1414.4
2014-Aug-12 16:33N 48°27' W 124°30'1514.8
2014-Aug-12 15:33N 48°21' W 124°10'1414.3
2014-Aug-12 14:33N 48°17' W 123°49'1313.2
2014-Aug-12 13:33N 48°14' W 123°30'9 9.2
2014-Aug-12 12:33N 48°10' W 123°17'1312.7
2014-Aug-12 11:34N 48°18' W 123°03'1211.7
2014-Aug-12 10:33N 48°25' W 122°48'1010.3
2014-Aug-12 09:33N 48°31' W 122°35'1 0.5
2014-Aug-12 08:33N 48°31' W 122°35'0 0.0
2014-Aug-12 07:32N 48°31' W 122°35'0 0.0
2014-Aug-12 06:32N 48°31' W 122°35'0 0.0
2014-Aug-12 05:23N 48°31' W 122°35'0 0.0
2014-Aug-12 04:29N 48°31' W 122°35'0 0.0
2014-Aug-12 03:32N 48°31' W 122°35'0 0.0
2014-Aug-12 02:32N 48°31' W 122°35'0 0.0
2014-Aug-12 01:29N 48°31' W 122°35'0 0.0
2014-Aug-12 00:32N 48°31' W 122°35'0 0.0
2014-Aug-11 23:29N 48°31' W 122°35'0 0.0
2014-Aug-11 22:29N 48°31' W 122°35'0 0.0
2014-Aug-11 21:29N 48°31' W 122°35'0 0.0
2014-Aug-11 20:29N 48°31' W 122°35'0 0.0
2014-Aug-11 19:29N 48°31' W 122°35'0 0.0
2014-Aug-11 18:23N 48°31' W 122°35'0 0.0
2014-Aug-11 17:26N 48°31' W 122°35'0 0.0
2014-Aug-11 16:32N 48°31' W 122°35'0 0.0
2014-Aug-11 15:29N 48°31' W 122°35'0 0.0
2014-Aug-11 14:32N 48°31' W 122°35'0 0.0
2014-Aug-11 13:29N 48°31' W 122°35'0 0.0
2014-Aug-11 12:29N 48°31' W 122°35'0 0.0
2014-Aug-11 11:29N 48°31' W 122°35'0 0.0
2014-Aug-11 10:29N 48°31' W 122°35'0 0.0
2014-Aug-11 09:29N 48°31' W 122°35'0 0.0
2014-Aug-11 08:29N 48°31' W 122°35'0 0.0
2014-Aug-11 07:29N 48°31' W 122°35'0 0.0
2014-Aug-11 06:17N 48°31' W 122°35'0 0.0
2014-Aug-11 05:29N 48°31' W 122°35'0 0.0
2014-Aug-11 04:23N 48°31' W 122°35'0 0.0
2014-Aug-11 03:29N 48°31' W 122°35'0 0.0
2014-Aug-11 02:29N 48°31' W 122°35'0 0.0
2014-Aug-11 01:29N 48°31' W 122°35'0 0.0
2014-Aug-11 00:29N 48°31' W 122°35'0 0.0
2014-Aug-10 23:29N 48°31' W 122°35'0 0.0
2014-Aug-10 22:29N 48°31' W 122°35'0 0.0
2014-Aug-10 21:29N 48°31' W 122°35'0 0.0
2014-Aug-10 20:29N 48°31' W 122°35'0 0.0
2014-Aug-10 19:29N 48°31' W 122°35'0 0.0
2014-Aug-10 18:29N 48°31' W 122°35'0 0.0
2014-Aug-10 17:32N 48°31' W 122°35'0 0.0
2014-Aug-10 16:32N 48°31' W 122°35'0 0.0
2014-Aug-10 15:29N 48°31' W 122°35'0 0.0
2014-Aug-10 14:23N 48°31' W 122°35'0 0.0
2014-Aug-10 13:29N 48°31' W 122°35'0 0.0
2014-Aug-10 12:23N 48°31' W 122°35'0 0.0
2014-Aug-10 11:26N 48°31' W 122°35'0 0.0
2014-Aug-10 10:29N 48°31' W 122°35'0 0.0
2014-Aug-10 09:29N 48°31' W 122°35'0 0.0
2014-Aug-10 08:32N 48°31' W 122°35'0 0.0
2014-Aug-10 07:29N 48°31' W 122°35'0 0.0
2014-Aug-10 06:29N 48°31' W 122°35'0 0.0
2014-Aug-10 05:32N 48°31' W 122°35'0 0.0
2014-Aug-10 04:29N 48°31' W 122°35'0 0.0
2014-Aug-10 03:32N 48°31' W 122°35'0 0.0
2014-Aug-10 02:32N 48°31' W 122°35'  
Track history (hours):
 
Tides and Currents Weather Stations Pressure Air Temp Water Temp Dewpoint Dewpoint Depression Visibility Wind Speed Wind Dir Waves Ship Positions

Vision

More information available from US FCC via Universal Licensing System and Coast Guard Vessel Documentation Center.

Last reported at 2014-Aug-20 02:32 UTC. Time now 2014-Aug-21 12:08 UTC.
Position N 46°14' W 123°26'.

Length 199 m; draft 5 m.

Type: Tow > 200 m length. MMSI: 366904000.

Date/timePositionNaut miles runAvg speedWind from/ knotsBaromVisibWave heightAir tempDewpointWater temp
2014-Aug-20 02:32N 46°14' W 123°26'1110.8
2014-Aug-20 01:33N 46°15' W 123°41'1110.9
2014-Aug-20 00:34N 46°12' W 123°56'9 8.9
2014-Aug-19 23:33N 46°11' W 124°09'9 9.2
2014-Aug-19 22:34N 46°04' W 124°17'146 9.0
2014-Aug-19 06:27N 43°48' W 125°30'8 8.7
2014-Aug-19 05:34N 43°41' W 125°34'9 8.9
2014-Aug-19 04:33N 43°32' W 125°39'191 9.0
2014-Aug-18 07:23N 40°21' W 125°39'59 8.2
2014-Aug-18 00:13N 39°26' W 125°11'54 9.3
2014-Aug-17 18:24N 38°36' W 124°46'8 9.6
2014-Aug-17 17:33N 38°28' W 124°42'9 9.3
2014-Aug-17 16:33N 38°20' W 124°38'9 9.1
2014-Aug-17 15:33N 38°13' W 124°30'9 9.4
2014-Aug-17 14:33N 38°07' W 124°20'1010.0
2014-Aug-17 13:33N 38°01' W 124°11'1211.9
2014-Aug-17 12:33N 37°53' W 123°59'1212.3
2014-Aug-17 11:33N 37°45' W 123°47'1111.2
2014-Aug-17 10:33N 37°38' W 123°37'10 9.5
2014-Aug-17 09:33N 37°34' W 123°26'1212.4
2014-Aug-17 08:34N 37°34' W 123°10'1211.8
2014-Aug-17 07:33N 37°38' W 122°56'1212.2
2014-Aug-17 06:33N 37°44' W 122°42'1313.2
2014-Aug-17 05:33N 37°50' W 122°28'6 6.3
2014-Aug-17 04:32N 37°46' W 122°21'0 0.0
2014-Aug-17 03:32N 37°46' W 122°21'0 0.1
2014-Aug-17 02:32N 37°46' W 122°21'0 0.1
2014-Aug-17 01:32N 37°46' W 122°21'0 0.2
2014-Aug-17 00:32N 37°46' W 122°21'0 0.1
2014-Aug-16 23:32N 37°46' W 122°21'0 0.1
2014-Aug-16 22:33N 37°46' W 122°21'0 0.1
2014-Aug-16 21:32N 37°46' W 122°21'0 0.0
2014-Aug-16 20:32N 37°46' W 122°21'0 0.1
2014-Aug-16 19:29N 37°46' W 122°21'0 0.2
2014-Aug-16 18:32N 37°46' W 122°21'0 0.0
2014-Aug-16 17:32N 37°46' W 122°21'0 0.0
2014-Aug-16 16:32N 37°46' W 122°21'7 7.5
2014-Aug-16 15:33N 37°53' W 122°25'1111.1
2014-Aug-16 14:33N 38°03' W 122°20'9 9.5
2014-Aug-16 13:34N 38°02' W 122°08'0 0.1
2014-Aug-16 11:30N 38°02' W 122°08'0 0.0
2014-Aug-16 10:30N 38°02' W 122°08'0 0.0
2014-Aug-16 09:30N 38°02' W 122°08'0 0.0
2014-Aug-16 08:30N 38°02' W 122°08'0 0.0
2014-Aug-16 07:30N 38°02' W 122°08'0 0.0
2014-Aug-16 06:24N 38°02' W 122°08'0 0.0
2014-Aug-16 05:30N 38°02' W 122°08'0 0.0
2014-Aug-16 04:30N 38°02' W 122°08'0 0.0
2014-Aug-16 02:24N 38°02' W 122°08'0 0.0
2014-Aug-15 16:06N 38°02' W 122°08'0 0.0
2014-Aug-15 15:30N 38°02' W 122°08'0 0.4
2014-Aug-15 14:33N 38°02' W 122°08'7 7.3
2014-Aug-15 13:33N 38°03' W 122°17'8 8.0
2014-Aug-15 12:33N 37°59' W 122°26'8 7.7
2014-Aug-15 11:33N 37°51' W 122°25'1010.3
2014-Aug-15 10:33N 37°46' W 122°36'9 8.7
2014-Aug-15 09:33N 37°42' W 122°45'7 7.2
2014-Aug-15 08:33N 37°38' W 122°53'8 8.0
2014-Aug-15 07:33N 37°33' W 123°01'8 7.7
2014-Aug-15 06:33N 37°32' W 123°11'8 8.1
2014-Aug-15 05:33N 37°32' W 123°21'8 8.1
2014-Aug-15 04:33N 37°33' W 123°31'8 7.7
2014-Aug-15 03:33N 37°38' W 123°39'8 7.9
2014-Aug-15 02:33N 37°43' W 123°47'9 8.6
2014-Aug-15 01:33N 37°49' W 123°54'11 9.2
2014-Aug-15 00:21N 37°57' W 124°04'30 7.9
2014-Aug-14 20:30N 38°17' W 124°33'54512.3
2014-Aug-13 00:21N 47°19' W 125°43'4612.2
2014-Aug-12 20:33N 48°04' W 125°23'1211.9
2014-Aug-12 19:32N 48°14' W 125°15'1212.6
2014-Aug-12 18:33N 48°25' W 125°06'1111.5
2014-Aug-12 17:33N 48°31' W 124°51'1414.4
2014-Aug-12 16:33N 48°27' W 124°30'1514.8
2014-Aug-12 15:33N 48°21' W 124°10'1414.3
2014-Aug-12 14:33N 48°17' W 123°49'1313.2
2014-Aug-12 13:33N 48°14' W 123°30'9 9.2
2014-Aug-12 12:33N 48°10' W 123°17'1312.7
2014-Aug-12 11:34N 48°18' W 123°03'1211.7
2014-Aug-12 10:33N 48°25' W 122°48'1010.3
2014-Aug-12 09:33N 48°31' W 122°35'1 0.5
2014-Aug-12 08:33N 48°31' W 122°35'0 0.0
2014-Aug-12 07:32N 48°31' W 122°35'0 0.0
2014-Aug-12 06:32N 48°31' W 122°35'0 0.0
2014-Aug-12 05:23N 48°31' W 122°35'0 0.0
2014-Aug-12 04:29N 48°31' W 122°35'0 0.0
2014-Aug-12 03:32N 48°31' W 122°35'0 0.0
2014-Aug-12 02:32N 48°31' W 122°35'0 0.0
2014-Aug-12 01:29N 48°31' W 122°35'0 0.0
2014-Aug-12 00:32N 48°31' W 122°35'0 0.0
2014-Aug-11 23:29N 48°31' W 122°35'0 0.0
2014-Aug-11 22:29N 48°31' W 122°35'0 0.0
2014-Aug-11 21:29N 48°31' W 122°35'0 0.0
2014-Aug-11 20:29N 48°31' W 122°35'0 0.0
2014-Aug-11 19:29N 48°31' W 122°35'0 0.0
2014-Aug-11 18:23N 48°31' W 122°35'0 0.0
2014-Aug-11 17:26N 48°31' W 122°35'0 0.0
2014-Aug-11 16:32N 48°31' W 122°35'0 0.0
2014-Aug-11 15:29N 48°31' W 122°35'0 0.0
2014-Aug-11 14:32N 48°31' W 122°35'0 0.0
2014-Aug-11 13:29N 48°31' W 122°35'0 0.0
2014-Aug-11 12:29N 48°31' W 122°35'0 0.0
2014-Aug-11 11:29N 48°31' W 122°35'0 0.0
2014-Aug-11 10:29N 48°31' W 122°35'0 0.0
2014-Aug-11 09:29N 48°31' W 122°35'0 0.0
2014-Aug-11 08:29N 48°31' W 122°35'0 0.0
2014-Aug-11 07:29N 48°31' W 122°35'0 0.0
2014-Aug-11 06:17N 48°31' W 122°35'0 0.0
2014-Aug-11 05:29N 48°31' W 122°35'0 0.0
2014-Aug-11 04:23N 48°31' W 122°35'0 0.0
2014-Aug-11 03:29N 48°31' W 122°35'0 0.0
2014-Aug-11 02:29N 48°31' W 122°35'0 0.0
2014-Aug-11 01:29N 48°31' W 122°35'0 0.0
2014-Aug-11 00:29N 48°31' W 122°35'0 0.0
2014-Aug-10 23:29N 48°31' W 122°35'0 0.0
2014-Aug-10 22:29N 48°31' W 122°35'0 0.0
2014-Aug-10 21:29N 48°31' W 122°35'0 0.0
2014-Aug-10 20:29N 48°31' W 122°35'0 0.0
2014-Aug-10 19:29N 48°31' W 122°35'0 0.0
2014-Aug-10 18:29N 48°31' W 122°35'0 0.0
2014-Aug-10 17:32N 48°31' W 122°35'0 0.0
2014-Aug-10 16:32N 48°31' W 122°35'0 0.0
2014-Aug-10 15:29N 48°31' W 122°35'0 0.0
2014-Aug-10 14:23N 48°31' W 122°35'0 0.0
2014-Aug-10 13:29N 48°31' W 122°35'0 0.0
2014-Aug-10 12:23N 48°31' W 122°35'0 0.0
2014-Aug-10 11:26N 48°31' W 122°35'0 0.0
2014-Aug-10 10:29N 48°31' W 122°35'0 0.0
2014-Aug-10 09:29N 48°31' W 122°35'0 0.0
2014-Aug-10 08:32N 48°31' W 122°35'0 0.0
2014-Aug-10 07:29N 48°31' W 122°35'0 0.0
2014-Aug-10 06:29N 48°31' W 122°35'0 0.0
2014-Aug-10 05:32N 48°31' W 122°35'0 0.0
2014-Aug-10 04:29N 48°31' W 122°35'0 0.0
2014-Aug-10 03:32N 48°31' W 122°35'0 0.0
2014-Aug-10 02:32N 48°31' W 122°35'  

Dump ship's entire track history